createdAt,value
2023-02-15T00:02:16.962Z,45.95
2023-02-15T00:04:58.978Z,45.13
2023-02-15T00:07:47.841Z,45.78
2023-02-15T00:10:36.643Z,45.92
2023-02-15T00:13:25.798Z,46.55
2023-02-15T00:16:17.115Z,47.45
2023-02-15T00:19:01.835Z,49.00
2023-02-15T00:21:44.006Z,47.13
2023-02-15T00:24:34.787Z,44.63
2023-02-15T00:27:23.836Z,47.88
2023-02-15T00:30:06.105Z,45.45
2023-02-15T00:32:56.798Z,44.97
2023-02-15T00:35:39.054Z,43.78
2023-02-15T00:38:27.818Z,44.00
2023-02-15T00:41:12.114Z,45.97
2023-02-15T00:44:00.785Z,44.95
2023-02-15T00:46:44.161Z,45.25
2023-02-15T00:49:32.796Z,48.00
2023-02-15T00:52:15.077Z,45.22
2023-02-15T00:55:04.901Z,45.30
2023-02-15T00:57:47.048Z,45.58
2023-02-15T01:00:35.792Z,48.15
2023-02-15T01:03:24.775Z,48.95
2023-02-15T01:06:07.337Z,47.92
2023-02-15T01:08:55.818Z,47.03
2023-02-15T01:11:45.089Z,46.85
2023-02-15T01:14:27.440Z,47.60
2023-02-15T01:17:15.022Z,49.10
2023-02-15T01:19:57.825Z,49.50
2023-02-15T01:22:40.193Z,48.38
2023-02-15T01:25:28.750Z,48.88
2023-02-15T01:28:18.026Z,45.70
2023-02-15T01:31:00.896Z,46.30
2023-02-15T01:33:50.014Z,42.85
2023-02-15T01:36:32.797Z,43.28
2023-02-15T01:39:21.770Z,45.15
2023-02-15T01:42:05.055Z,43.92
2023-02-15T01:45:07.743Z,45.60
2023-02-15T01:47:57.085Z,45.30
2023-02-15T01:50:49.738Z,45.10
2023-02-15T01:56:47.811Z,43.92
2023-02-15T01:59:32.179Z,44.92
2023-02-15T02:02:23.838Z,44.88
2023-02-15T02:05:14.331Z,44.53
2023-02-15T02:08:06.839Z,45.25
2023-02-15T02:10:49.037Z,46.27
2023-02-15T02:13:37.765Z,47.25
2023-02-15T02:16:35.725Z,43.78
2023-02-15T02:19:49.160Z,45.67
2023-02-15T02:22:55.756Z,48.78
2023-02-15T02:26:09.128Z,51.28
2023-02-15T02:29:34.788Z,54.50
2023-02-15T02:32:16.956Z,54.97
2023-02-15T02:35:23.745Z,55.72
2023-02-15T02:38:37.752Z,56.15
2023-02-15T02:41:26.048Z,55.40
2023-02-15T02:44:27.807Z,55.35
2023-02-15T02:47:39.052Z,57.30
2023-02-15T02:50:34.754Z,54.72
2023-02-15T02:53:25.777Z,57.25
2023-02-15T02:56:41.799Z,55.65
2023-02-15T02:59:39.827Z,58.70
2023-02-15T03:02:38.843Z,59.50
2023-02-15T03:05:34.710Z,56.72
2023-02-15T03:08:23.873Z,55.90
2023-02-15T03:11:15.760Z,55.28
2023-02-15T03:16:51.822Z,54.88
2023-02-15T03:19:38.862Z,53.58
2023-02-15T03:22:35.759Z,51.40
2023-02-15T03:25:35.084Z,52.75
2023-02-15T03:28:30.713Z,51.20
2023-02-15T03:31:23.869Z,50.95
2023-02-15T03:34:15.004Z,54.38
2023-02-15T03:37:22.738Z,51.67
2023-02-15T03:40:36.761Z,51.05
2023-02-15T03:44:01.800Z,53.88
2023-02-15T03:47:00.848Z,54.35
2023-02-15T03:49:58.106Z,50.97
2023-02-15T03:52:46.838Z,62.38
2023-02-15T03:55:29.026Z,63.63
2023-02-15T03:58:35.776Z,61.92
2023-02-15T04:01:59.159Z,53.08
2023-02-15T04:04:55.732Z,63.17
2023-02-15T04:07:38.105Z,56.10
2023-02-15T04:10:44.761Z,65.00
2023-02-15T04:13:53.831Z,62.83
2023-02-15T04:16:42.110Z,58.45
2023-02-15T04:19:42.739Z,50.22
2023-02-15T04:22:49.757Z,61.97
2023-02-15T04:25:32.229Z,62.90
2023-02-15T04:28:20.759Z,55.53
2023-02-15T04:31:09.784Z,61.03
2023-02-15T04:33:51.922Z,59.85
2023-02-15T04:36:40.708Z,56.17
2023-02-15T04:39:22.985Z,52.13
2023-02-15T04:42:11.762Z,55.45
2023-02-15T04:45:07.551Z,54.20
2023-02-15T04:47:56.801Z,51.47
2023-02-15T04:50:39.026Z,49.58
2023-02-15T04:53:27.798Z,50.53
2023-02-15T04:56:10.085Z,46.45
2023-02-15T04:58:58.795Z,46.53
2023-02-15T05:01:41.002Z,47.60
2023-02-15T05:04:29.813Z,47.92
2023-02-15T05:07:18.741Z,43.88
2023-02-15T05:10:00.999Z,41.08
2023-02-15T05:12:49.819Z,39.42
2023-02-15T05:15:39.052Z,37.47
2023-02-15T05:18:20.705Z,35.72
2023-02-15T05:21:08.975Z,37.13
2023-02-15T05:23:51.735Z,35.25
2023-02-15T05:26:59.707Z,34.55
2023-02-15T05:29:41.800Z,35.38
2023-02-15T05:32:24.231Z,34.05
2023-02-15T05:35:12.714Z,33.95
2023-02-15T05:37:55.202Z,32.45
2023-02-15T05:40:43.783Z,31.98
2023-02-15T05:43:40.737Z,30.45
2023-02-15T05:46:30.320Z,33.17
2023-02-15T05:49:12.754Z,34.58
2023-02-15T05:51:55.259Z,31.80
2023-02-15T05:54:43.759Z,31.95
2023-02-15T05:57:32.042Z,34.03
2023-02-15T06:00:14.870Z,28.17
2023-02-15T06:03:03.104Z,29.10
2023-02-15T06:05:45.831Z,26.80
2023-02-15T06:08:34.112Z,25.50
2023-02-15T06:11:16.786Z,25.92
2023-02-15T06:14:05.489Z,24.45
2023-02-15T06:16:48.783Z,24.75
2023-02-15T06:19:37.041Z,24.13
2023-02-15T06:22:19.709Z,24.95
2023-02-15T06:25:08.051Z,25.02
2023-02-15T06:27:51.758Z,25.90
2023-02-15T06:30:41.115Z,21.90
2023-02-15T06:33:22.842Z,22.25
2023-02-15T06:36:12.013Z,23.30
2023-02-15T06:38:53.834Z,24.35
2023-02-15T06:41:41.989Z,20.23
2023-02-15T06:44:36.795Z,18.95
2023-02-15T06:47:26.155Z,19.13
2023-02-15T06:50:07.782Z,18.33
2023-02-15T06:52:56.041Z,21.33
2023-02-15T06:55:38.723Z,20.17
2023-02-15T06:58:28.216Z,21.25
2023-02-15T07:01:11.172Z,18.73
2023-02-15T07:03:59.118Z,17.92
2023-02-15T07:06:42.860Z,13.85
2023-02-15T07:09:32.100Z,14.23
2023-02-15T07:12:33.789Z,14.98
2023-02-15T07:15:29.779Z,17.65
2023-02-15T07:18:12.779Z,17.23
2023-02-15T07:21:01.680Z,14.55
2023-02-15T07:23:46.071Z,13.32
2023-02-15T07:26:35.693Z,13.18
2023-02-15T07:29:18.279Z,11.68
2023-02-15T07:32:06.748Z,11.35
2023-02-15T07:34:50.153Z,10.65
2023-02-15T07:37:38.684Z,11.15
2023-02-15T07:40:21.187Z,9.30
2023-02-15T07:43:09.800Z,10.43
2023-02-15T07:45:58.064Z,10.35
2023-02-15T07:48:41.816Z,11.00
2023-02-15T07:51:30.204Z,10.02
2023-02-15T07:54:12.779Z,10.75
2023-02-15T07:57:02.184Z,10.63
2023-02-15T07:59:43.706Z,10.18
2023-02-15T08:02:32.341Z,10.30
2023-02-15T08:05:14.768Z,9.40
2023-02-15T08:07:56.943Z,9.77
2023-02-15T08:11:04.806Z,12.13
2023-02-15T08:13:58.323Z,9.43
2023-02-15T08:16:51.163Z,9.02
2023-02-15T08:19:41.156Z,10.75
2023-02-15T08:22:23.698Z,12.38
2023-02-15T08:25:13.197Z,11.27
2023-02-15T08:27:54.773Z,11.50
2023-02-15T08:30:43.118Z,9.25
2023-02-15T08:33:26.806Z,8.68
2023-02-15T08:36:19.211Z,9.18
2023-02-15T08:39:01.769Z,9.40
2023-02-15T08:41:55.168Z,9.80
2023-02-15T08:44:50.465Z,9.57
2023-02-15T08:47:39.027Z,10.30
2023-02-15T08:50:21.796Z,10.15
2023-02-15T08:53:12.816Z,11.20
2023-02-15T08:55:55.820Z,11.75
2023-02-15T08:58:45.176Z,11.75
2023-02-15T09:01:29.809Z,13.52
2023-02-15T09:04:19.046Z,13.05
2023-02-15T09:07:01.732Z,12.80
2023-02-15T09:09:50.020Z,13.82
2023-02-15T09:12:31.741Z,13.90
2023-02-15T09:15:20.142Z,14.68
2023-02-15T09:18:02.746Z,14.30
2023-02-15T09:20:53.458Z,13.60
2023-02-15T09:23:37.088Z,13.10
2023-02-15T09:26:31.030Z,13.70
2023-02-15T09:31:55.680Z,13.20
2023-02-15T09:34:44.700Z,12.73
2023-02-15T09:37:33.858Z,11.07
2023-02-15T09:40:16.760Z,12.55
2023-02-15T09:43:19.340Z,12.63
2023-02-15T09:46:49.769Z,11.82
2023-02-15T09:50:21.983Z,11.93
2023-02-15T09:53:06.768Z,13.27
2023-02-15T09:56:07.089Z,11.40
2023-02-15T09:58:57.795Z,11.27
2023-02-15T10:01:54.004Z,10.75
2023-02-15T10:04:38.906Z,12.27
2023-02-15T10:07:50.013Z,12.63
2023-02-15T10:10:44.735Z,10.80
2023-02-15T10:13:48.106Z,10.80
2023-02-15T10:17:00.855Z,10.83
2023-02-15T10:20:07.560Z,9.45
2023-02-15T10:23:01.782Z,9.68
2023-02-15T10:26:15.913Z,12.93
2023-02-15T10:28:57.823Z,13.30
2023-02-15T10:31:56.210Z,12.50
2023-02-15T10:34:48.804Z,10.88
2023-02-15T10:37:50.145Z,11.23
2023-02-15T10:40:46.684Z,9.40
2023-02-15T10:43:53.804Z,9.20
2023-02-15T10:47:27.752Z,10.18
2023-02-15T10:50:52.776Z,9.63
2023-02-15T10:53:53.021Z,9.82
2023-02-15T10:56:56.772Z,9.68
2023-02-15T11:02:50.784Z,9.93
2023-02-15T11:06:02.028Z,9.80
2023-02-15T11:09:04.702Z,9.88
2023-02-15T11:11:49.064Z,9.88
2023-02-15T11:15:12.762Z,9.23
2023-02-15T11:18:05.110Z,9.90
2023-02-15T11:21:18.717Z,7.82
2023-02-15T11:24:01.038Z,8.52
2023-02-15T11:27:13.782Z,8.00
2023-02-15T11:30:20.353Z,8.32
2023-02-15T11:33:13.826Z,7.88
2023-02-15T11:36:08.016Z,8.10
2023-02-15T11:39:01.698Z,9.15
2023-02-15T11:41:53.231Z,9.23
2023-02-15T11:44:51.148Z,8.77
2023-02-15T11:47:32.980Z,8.48
2023-02-15T11:50:30.723Z,8.82
2023-02-15T11:53:32.258Z,10.10
2023-02-15T11:56:25.862Z,8.90
2023-02-15T11:59:19.959Z,9.02
2023-02-15T12:02:08.690Z,8.32
2023-02-15T12:04:56.073Z,8.73
2023-02-15T12:08:12.743Z,7.85
2023-02-15T12:11:33.963Z,8.75
2023-02-15T12:14:26.233Z,9.07
2023-02-15T12:17:09.245Z,8.45
2023-02-15T12:20:00.728Z,8.90
2023-02-15T12:22:52.737Z,9.00
2023-02-15T12:25:46.009Z,11.30
2023-02-15T12:28:47.872Z,11.60
2023-02-15T12:31:51.143Z,10.38
2023-02-15T12:34:35.667Z,11.05
2023-02-15T12:37:32.773Z,12.27
2023-02-15T12:40:34.179Z,11.05
2023-02-15T12:43:46.805Z,10.45
2023-02-15T12:46:38.903Z,10.68
2023-02-15T12:49:29.782Z,10.27
2023-02-15T12:52:22.135Z,10.20
2023-02-15T12:55:10.753Z,11.52
2023-02-15T12:58:27.221Z,11.70
2023-02-15T13:01:19.795Z,10.75
2023-02-15T13:04:14.003Z,10.10
2023-02-15T13:07:00.727Z,8.70
2023-02-15T13:09:43.212Z,12.70
2023-02-15T13:12:38.731Z,11.07
2023-02-15T13:15:45.853Z,12.20
2023-02-15T13:18:42.227Z,10.40
2023-02-15T13:21:40.697Z,10.85
2023-02-15T13:24:42.227Z,11.80
2023-02-15T13:27:36.821Z,11.70
2023-02-15T13:30:43.705Z,13.10
2023-02-15T13:33:36.822Z,14.80
2023-02-15T13:36:28.061Z,18.97
2023-02-15T13:39:39.684Z,26.65
2023-02-15T13:42:50.167Z,28.50
2023-02-15T13:45:48.731Z,30.92
2023-02-15T13:48:57.986Z,26.38
2023-02-15T13:52:02.792Z,23.25
2023-02-15T13:54:54.183Z,22.17
2023-02-15T13:57:47.827Z,23.05
2023-02-15T14:00:46.254Z,22.50
2023-02-15T14:04:02.864Z,20.77
2023-02-15T14:07:12.089Z,20.48
2023-02-15T14:10:03.695Z,19.02
2023-02-15T14:13:17.238Z,18.33
2023-02-15T14:16:12.846Z,20.88
2023-02-15T14:19:18.060Z,23.45
2023-02-15T14:22:16.796Z,22.48
2023-02-15T14:25:23.709Z,20.58
2023-02-15T14:28:28.919Z,21.35
2023-02-15T14:31:21.857Z,21.38
2023-02-15T14:34:08.588Z,21.23
2023-02-15T14:37:00.723Z,19.92
2023-02-15T14:40:10.650Z,19.55
2023-02-15T14:43:37.768Z,20.08
2023-02-15T14:47:02.021Z,19.65
2023-02-15T14:49:48.771Z,17.95
2023-02-15T14:52:38.106Z,19.50
2023-02-15T14:55:46.727Z,19.67
2023-02-15T14:58:29.042Z,19.58
2023-02-15T15:01:26.808Z,20.10
2023-02-15T15:04:22.036Z,20.98
2023-02-15T15:07:09.082Z,19.17
2023-02-15T15:10:32.197Z,20.77
2023-02-15T15:13:44.795Z,20.35
2023-02-15T15:16:32.320Z,20.63
2023-02-15T15:19:25.756Z,21.05
2023-02-15T15:22:13.981Z,23.23
2023-02-15T15:25:02.736Z,22.48
2023-02-15T15:27:56.110Z,23.45
2023-02-15T15:30:48.838Z,22.07
2023-02-15T15:34:12.437Z,22.58
2023-02-15T15:37:30.792Z,23.40
2023-02-15T15:40:41.388Z,23.85
2023-02-15T15:43:49.873Z,23.63
2023-02-15T15:46:44.072Z,24.02
2023-02-15T15:52:28.131Z,25.48
2023-02-15T15:55:23.698Z,24.85
2023-02-15T15:58:09.470Z,24.52
2023-02-15T16:01:04.755Z,26.17
2023-02-15T16:04:02.121Z,26.90
2023-02-15T16:06:46.677Z,29.60
2023-02-15T16:09:37.066Z,28.20
2023-02-15T16:12:26.838Z,29.17
2023-02-15T16:15:33.084Z,26.73
2023-02-15T16:18:15.729Z,27.60
2023-02-15T16:21:10.046Z,26.52
2023-02-15T16:24:03.746Z,26.95
2023-02-15T16:27:00.700Z,27.17
2023-02-15T16:29:49.788Z,27.30
2023-02-15T16:32:40.902Z,30.40
2023-02-15T16:35:28.168Z,27.88
2023-02-15T16:38:20.885Z,29.13
2023-02-15T16:41:06.130Z,28.92
2023-02-15T16:43:57.723Z,28.70
2023-02-15T16:46:57.647Z,29.48
2023-02-15T16:49:47.805Z,32.78
2023-02-15T16:52:34.141Z,29.88
2023-02-15T16:55:37.913Z,28.63
2023-02-15T16:58:26.235Z,31.48
2023-02-15T17:01:17.781Z,31.23
2023-02-15T17:04:19.039Z,30.20
2023-02-15T17:07:14.745Z,31.42
2023-02-15T17:10:04.960Z,30.42
2023-02-15T17:13:06.711Z,31.20
2023-02-15T17:16:13.114Z,31.52
2023-02-15T17:19:02.743Z,32.38
2023-02-15T17:21:52.245Z,31.20
2023-02-15T17:24:45.710Z,32.38
2023-02-15T17:27:31.200Z,31.25
2023-02-15T17:30:29.805Z,31.33
2023-02-15T17:33:12.985Z,32.40
2023-02-15T17:36:20.768Z,33.35
2023-02-15T17:39:06.062Z,32.03
2023-02-15T17:41:55.657Z,33.17
2023-02-15T17:44:37.998Z,33.00
2023-02-15T17:47:38.921Z,32.28
2023-02-15T17:50:34.023Z,31.88
2023-02-15T17:53:17.767Z,33.15
2023-02-15T17:56:00.088Z,35.30
2023-02-15T17:58:49.860Z,35.15
2023-02-15T18:01:57.392Z,33.15
2023-02-15T18:05:02.746Z,34.85
2023-02-15T18:08:03.240Z,34.72
2023-02-15T18:11:09.769Z,35.17
2023-02-15T18:14:02.483Z,34.75
2023-02-15T18:16:50.801Z,35.03
2023-02-15T18:19:48.184Z,36.15
2023-02-15T18:22:31.145Z,34.33
2023-02-15T18:25:22.038Z,35.88
2023-02-15T18:28:10.711Z,35.40
2023-02-15T18:30:59.762Z,37.22
2023-02-15T18:33:46.180Z,35.22
2023-02-15T18:36:41.759Z,35.80
2023-02-15T18:39:36.143Z,38.85
2023-02-15T18:42:36.753Z,35.42
2023-02-15T18:45:44.748Z,36.10
2023-02-15T18:48:33.014Z,35.80
2023-02-15T18:51:25.676Z,39.05
2023-02-15T18:54:18.370Z,36.35
2023-02-15T18:57:12.712Z,36.47
2023-02-15T19:00:02.246Z,37.45
2023-02-15T19:02:44.843Z,37.53
2023-02-15T19:05:29.403Z,38.15
2023-02-15T19:08:19.826Z,35.33
2023-02-15T19:11:08.979Z,35.75
2023-02-15T19:13:51.781Z,36.88
2023-02-15T19:16:43.061Z,38.00
2023-02-15T19:19:25.736Z,35.88
2023-02-15T19:22:18.022Z,39.10
2023-02-15T19:25:02.146Z,39.03
2023-02-15T19:27:50.129Z,38.22
2023-02-15T19:30:40.057Z,37.70
2023-02-15T19:33:29.086Z,38.55
2023-02-15T19:36:11.902Z,38.63
2023-02-15T19:39:02.006Z,37.45
2023-02-15T19:41:44.737Z,39.17
2023-02-15T19:44:32.982Z,39.83
2023-02-15T19:47:21.627Z,39.70
2023-02-15T19:50:04.957Z,37.92
2023-02-15T19:52:54.710Z,40.08
2023-02-15T19:55:40.042Z,39.60
2023-02-15T19:58:29.739Z,39.33
2023-02-15T20:01:12.230Z,38.42
2023-02-15T20:04:00.723Z,41.35
2023-02-15T20:06:43.017Z,39.10
2023-02-15T20:09:34.766Z,40.83
2023-02-15T20:12:33.034Z,39.70
2023-02-15T20:15:34.786Z,38.58
2023-02-15T20:18:19.246Z,39.47
2023-02-15T20:21:10.669Z,39.70
2023-02-15T20:23:52.977Z,40.25
2023-02-15T20:26:41.840Z,40.53
2023-02-15T20:29:25.979Z,39.10
2023-02-15T20:32:14.761Z,40.30
2023-02-15T20:34:57.001Z,40.63
2023-02-15T20:37:45.750Z,40.80
2023-02-15T20:40:32.114Z,41.30
2023-02-15T20:43:23.694Z,40.13
2023-02-15T20:46:13.012Z,39.63
2023-02-15T20:48:55.688Z,40.05
2023-02-15T20:51:45.583Z,39.90
2023-02-15T20:54:31.708Z,40.17
2023-02-15T20:57:20.908Z,40.38
2023-02-15T21:00:03.812Z,41.10
2023-02-15T21:03:01.979Z,41.78
2023-02-15T21:05:43.695Z,41.20
2023-02-15T21:08:34.198Z,41.00
2023-02-15T21:11:28.818Z,41.75
2023-02-15T21:14:28.135Z,43.42
2023-02-15T21:17:10.646Z,42.00
2023-02-15T21:20:05.666Z,46.67
2023-02-15T21:22:55.010Z,45.25
2023-02-15T21:25:45.661Z,47.08
2023-02-15T21:28:36.021Z,45.58
2023-02-15T21:31:26.801Z,46.03
2023-02-15T21:34:15.063Z,46.50
2023-02-15T21:36:58.664Z,49.67
2023-02-15T21:39:47.697Z,47.83
2023-02-15T21:42:48.474Z,47.47
2023-02-15T21:45:55.734Z,48.88
2023-02-15T21:48:38.025Z,48.47
2023-02-15T21:51:46.561Z,49.92
2023-02-15T21:54:35.644Z,50.58
2023-02-15T21:57:21.085Z,50.75
2023-02-15T22:00:10.717Z,52.72
2023-02-15T22:03:04.947Z,52.17
2023-02-15T22:05:47.633Z,54.05
2023-02-15T22:08:36.718Z,56.42
2023-02-15T22:11:24.948Z,55.55
2023-02-15T22:14:13.603Z,57.72
2023-02-15T22:16:55.951Z,56.60
2023-02-15T22:19:44.663Z,57.03
2023-02-15T22:22:27.254Z,56.63
2023-02-15T22:25:15.718Z,57.72
2023-02-15T22:27:59.905Z,60.08
2023-02-15T22:30:48.654Z,61.08
2023-02-15T22:33:48.642Z,59.80
2023-02-15T22:36:38.933Z,60.58
2023-02-15T22:39:20.709Z,59.70
2023-02-15T22:42:02.886Z,61.00
2023-02-15T22:44:51.649Z,59.00
2023-02-15T22:47:37.094Z,60.55
2023-02-15T22:50:41.726Z,60.50
2023-02-15T22:53:30.970Z,61.15
2023-02-15T22:56:16.719Z,62.75
2023-02-15T22:59:03.627Z,61.67
2023-02-15T23:01:53.653Z,60.95
2023-02-15T23:04:41.949Z,62.45
2023-02-15T23:07:26.610Z,57.70
2023-02-15T23:10:25.058Z,59.60
2023-02-15T23:13:26.651Z,58.35
2023-02-15T23:16:21.067Z,59.38
2023-02-15T23:19:03.771Z,58.97
2023-02-15T23:21:46.034Z,61.17
2023-02-15T23:24:36.637Z,58.75
2023-02-15T23:27:45.487Z,63.72
2023-02-15T23:30:28.699Z,60.38
2023-02-15T23:33:19.930Z,61.85
2023-02-15T23:36:02.646Z,61.10
2023-02-15T23:38:44.855Z,62.85
2023-02-15T23:41:38.637Z,64.30
2023-02-15T23:44:21.260Z,62.40
2023-02-15T23:47:09.707Z,62.78
2023-02-15T23:49:57.923Z,67.18
2023-02-15T23:52:39.644Z,65.38
2023-02-15T23:55:28.961Z,67.63
2023-02-15T23:58:19.681Z,65.55
